Time;durP1;ratioP1;P1;durP2;ratioP2;P2;SDS_P1;SDS_P2;PMS_P1;PMS_P2;Temp;Humidity;BMP_temperature;BMP_pressure;BME280_temperature;BME280_humidity;BME280_pressure;Samples;Min_cycle;Max_cycle;Signal;HPM_P1;HPM_P2
2022/10/14 00:01:01;;;;;;;;;;;12.80;99.90;;;;;;5067464;28;20051;-79
2022/10/14 00:03:27;;;;;;;10.45;5.45;;;12.80;99.90;;;;;;5066989;28;20007;-79
2022/10/14 00:05:53;;;;;;;10.90;7.22;;;12.80;99.90;;;;;;5071770;28;20040;-79
2022/10/14 00:08:19;;;;;;;7.55;5.03;;;12.80;99.90;;;;;;5066509;28;20025;-79
2022/10/14 00:10:44;;;;;;;8.15;4.80;;;12.80;99.90;;;;;;5069092;28;20040;-79
2022/10/14 00:13:10;;;;;;;10.20;5.47;;;12.80;99.90;;;;;;5067512;28;20036;-80
2022/10/14 00:15:40;;;;;;;9.70;5.38;;;12.80;99.90;;;;;;5071407;28;20028;-79
2022/10/14 00:18:07;;;;;;;8.88;5.15;;;12.80;99.90;;;;;;5070503;28;20029;-80
2022/10/14 00:20:33;;;;;;;8.30;5.22;;;12.80;99.90;;;;;;5064937;28;20036;-78
2022/10/14 00:22:59;;;;;;;11.40;5.75;;;12.70;99.90;;;;;;5068873;28;20063;-79
2022/10/14 00:25:25;;;;;;;7.78;5.10;;;12.80;99.90;;;;;;5071837;28;20033;-79
2022/10/14 00:27:51;;;;;;;11.63;5.68;;;12.70;99.90;;;;;;5072152;28;20035;-79
2022/10/14 00:30:17;;;;;;;10.15;5.65;;;12.80;99.90;;;;;;5063818;28;20029;-79
2022/10/14 00:32:43;;;;;;;7.40;5.28;;;12.80;99.90;;;;;;5066082;28;20102;-79
2022/10/14 00:35:09;;;;;;;8.25;5.43;;;12.80;99.90;;;;;;5069186;28;20480;-78
2022/10/14 00:37:34;;;;;;;7.38;4.97;;;12.80;99.90;;;;;;5072281;28;20103;-82
2022/10/14 00:40:00;;;;;;;7.35;5.35;;;12.70;99.90;;;;;;5075028;28;20029;-78
2022/10/14 00:42:26;;;;;;;10.02;6.00;;;12.60;99.90;;;;;;5069094;28;20036;-78
2022/10/14 00:45:02;;;;;;;10.77;5.68;;;12.60;99.90;;;;;;5069418;28;20055;-78
2022/10/14 00:47:29;;;;;;;9.55;5.90;;;12.60;99.90;;;;;;5070493;28;20455;-79
2022/10/14 00:49:56;;;;;;;7.70;5.35;;;12.60;99.90;;;;;;5070442;28;20025;-79
2022/10/14 00:52:23;;;;;;;10.75;6.38;;;12.60;99.90;;;;;;5065278;28;20112;-78
2022/10/14 00:55:06;;;;;;;11.50;5.95;;;12.60;99.90;;;;;;5070952;28;20089;-79
2022/10/14 00:57:34;;;;;;;8.05;5.32;;;12.60;99.90;;;;;;5061240;28;20052;-80
2022/10/14 01:00:15;;;;;;;9.32;5.53;;;12.60;99.90;;;;;;5066066;28;20562;-79
2022/10/14 01:02:41;;;;;;;8.77;5.85;;;12.50;99.90;;;;;;5066518;28;20435;-77
2022/10/14 01:05:09;;;;;;;12.32;5.55;;;12.60;99.90;;;;;;5067678;28;20024;-77
2022/10/14 01:07:41;;;;;;;;;;;12.60;99.90;;;;;;5068500;28;20036;-77
2022/10/14 01:10:18;;;;;;;8.50;5.35;;;12.60;99.90;;;;;;5068710;28;19939;-77
2022/10/14 01:13:07;;;;;;;7.93;5.35;;;12.50;99.90;;;;;;5067226;28;20028;-77
2022/10/14 01:16:05;;;;;;;9.45;5.35;;;12.60;99.90;;;;;;5068721;28;20423;-77
2022/10/14 01:18:55;;;;;;;9.20;5.55;;;12.60;99.90;;;;;;5066729;28;20541;-79
2022/10/14 01:21:41;;;;;;;9.98;5.53;;;12.60;99.90;;;;;;5075996;28;20040;-76
2022/10/14 01:24:32;;;;;;;11.10;5.97;;;12.60;99.90;;;;;;5073077;28;20454;-76
2022/10/14 01:27:23;;;;;;;9.32;5.80;;;12.50;99.90;;;;;;5075937;28;20366;-77
2022/10/14 01:30:36;;;;;;;9.38;5.78;;;12.60;99.90;;;;;;5069831;28;20181;-77
2022/10/14 01:33:27;;;;;;;9.48;5.65;;;12.50;99.90;;;;;;5007397;28;20516;-77
2022/10/14 01:36:02;;;;;;;9.25;5.30;;;12.50;99.90;;;;;;5065627;28;20036;-78
2022/10/14 01:38:36;;;;;;;11.80;5.63;;;12.50;99.90;;;;;;5065249;28;20040;-77
2022/10/14 01:41:05;;;;;;;8.13;5.43;;;12.50;99.90;;;;;;5066683;28;20036;-77
2022/10/14 01:43:31;;;;;;;7.82;5.10;;;12.50;99.90;;;;;;5059926;28;20020;-77
2022/10/14 01:46:03;;;;;;;6.97;4.97;;;12.50;99.90;;;;;;5069490;28;20097;-77
2022/10/14 01:48:33;;;;;;;9.20;6.03;;;12.50;99.90;;;;;;5066471;28;20074;-77
2022/10/14 01:51:02;;;;;;;9.40;5.55;;;12.50;99.90;;;;;;5069702;28;20512;-77
2022/10/14 01:53:37;;;;;;;8.35;4.50;;;12.50;99.90;;;;;;5069450;28;20117;-77
2022/10/14 01:56:05;;;;;;;8.15;4.57;;;12.50;99.90;;;;;;5068016;28;20056;-77
2022/10/14 01:58:32;;;;;;;6.90;4.63;;;12.50;99.90;;;;;;5070819;28;20178;-77
2022/10/14 02:00:58;;;;;;;6.28;4.30;;;12.50;99.90;;;;;;5065852;28;20090;-77
2022/10/14 02:03:24;;;;;;;6.22;3.65;;;12.50;99.90;;;;;;5065044;28;20032;-77
2022/10/14 02:06:02;;;;;;;5.35;3.88;;;12.50;99.90;;;;;;5066803;28;20043;-77
2022/10/14 02:08:47;;;;;;;5.72;3.90;;;12.50;99.90;;;;;;5070168;28;20017;-76
2022/10/14 02:11:20;;;;;;;7.40;3.90;;;12.50;99.90;;;;;;5068185;28;20544;-77
2022/10/14 02:14:16;;;;;;;9.20;4.30;;;12.40;99.90;;;;;;5068994;28;20086;-76
2022/10/14 02:17:18;;;;;;;5.35;4.30;;;12.50;99.90;;;;;;5081212;28;20032;-79
2022/10/14 02:19:54;;;;;;;8.60;4.28;;;12.50;99.90;;;;;;5064491;28;20389;-76
2022/10/14 02:22:53;;;;;;;7.80;4.47;;;12.40;99.90;;;;;;5070565;28;20028;-77
2022/10/14 02:25:27;;;;;;;6.07;3.90;;;12.40;99.90;;;;;;5068961;28;20029;-78
2022/10/14 02:27:54;;;;;;;7.13;3.92;;;12.40;99.90;;;;;;5071010;28;20054;-77
2022/10/14 02:30:20;;;;;;;5.75;3.63;;;12.40;99.90;;;;;;5070184;28;20032;-75
2022/10/14 02:32:48;;;;;;;5.70;3.58;;;12.50;99.90;;;;;;5064326;28;20063;-75
2022/10/14 02:35:19;;;;;;;6.75;4.50;;;12.40;99.90;;;;;;5065606;28;20029;-77
2022/10/14 02:37:48;;;;;;;8.60;3.85;;;12.40;99.90;;;;;;5068821;28;20033;-76
2022/10/14 02:40:19;;;;;;;7.20;4.10;;;12.40;99.90;;;;;;5067945;28;20024;-78
2022/10/14 02:42:45;;;;;;;4.55;3.78;;;12.40;99.90;;;;;;5070304;28;20043;-75
2022/10/14 02:45:13;;;;;;;7.80;4.13;;;12.40;99.90;;;;;;5067175;28;20020;-76
2022/10/14 02:47:39;;;;;;;8.65;3.40;;;12.40;99.90;;;;;;5067199;28;20032;-76
2022/10/14 02:50:09;;;;;;;7.82;4.18;;;12.40;99.90;;;;;;5080089;28;20021;-77
2022/10/14 02:52:38;;;;;;;5.53;4.00;;;12.40;99.90;;;;;;5071261;28;20054;-77
2022/10/14 02:55:04;;;;;;;8.80;4.18;;;12.40;99.90;;;;;;5068212;28;20088;-78
2022/10/14 02:57:30;;;;;;;6.43;4.05;;;12.40;99.90;;;;;;5067593;28;20070;-77
2022/10/14 02:59:55;;;;;;;8.15;4.20;;;12.40;99.90;;;;;;5072634;28;20095;-76
2022/10/14 03:02:21;;;;;;;7.70;3.67;;;12.30;99.90;;;;;;5073857;28;20119;-77
2022/10/14 03:04:50;;;;;;;8.25;3.85;;;12.30;99.90;;;;;;5069341;28;21217;-76
2022/10/14 03:07:16;;;;;;;7.97;4.70;;;12.30;99.90;;;;;;5072435;28;20062;-76
2022/10/14 03:09:42;;;;;;;7.97;3.85;;;12.30;99.90;;;;;;5072719;28;20029;-76
2022/10/14 03:12:08;;;;;;;4.30;3.70;;;12.30;99.90;;;;;;5073927;28;20024;-77
2022/10/14 03:14:36;;;;;;;6.68;4.82;;;12.30;99.90;;;;;;5072991;28;20028;-77
2022/10/14 03:17:02;;;;;;;7.70;4.57;;;12.20;99.90;;;;;;5070681;28;20054;-76
2022/10/14 03:19:28;;;;;;;5.57;4.13;;;12.30;99.90;;;;;;5065592;28;20032;-77
2022/10/14 03:21:54;;;;;;;7.40;4.55;;;12.20;99.90;;;;;;5074648;28;20127;-77
2022/10/14 03:24:20;;;;;;;6.00;4.10;;;12.20;99.90;;;;;;5074281;28;20035;-77
2022/10/14 03:26:45;;;;;;;6.72;4.80;;;12.20;99.90;;;;;;5064163;28;20044;-76
2022/10/14 03:29:11;;;;;;;7.53;3.85;;;12.30;99.90;;;;;;5072121;28;20108;-76
2022/10/14 03:31:37;;;;;;;9.10;4.05;;;12.20;99.90;;;;;;5070043;28;20041;-76
2022/10/14 03:34:03;;;;;;;14.70;4.43;;;12.30;99.90;;;;;;5066785;28;20037;-75
2022/10/14 03:36:28;;;;;;;6.45;4.32;;;12.30;99.90;;;;;;5071478;28;20024;-76
2022/10/14 03:38:54;;;;;;;5.25;3.83;;;12.30;99.90;;;;;;5073067;28;20417;-76
2022/10/14 03:41:20;;;;;;;6.05;4.57;;;12.30;99.90;;;;;;5073855;28;20051;-76
2022/10/14 03:43:45;;;;;;;8.63;5.05;;;12.30;99.90;;;;;;5070035;28;20067;-76
2022/10/14 03:46:11;;;;;;;7.03;4.28;;;12.30;99.90;;;;;;5072370;28;20091;-78
2022/10/14 03:48:37;;;;;;;7.93;4.65;;;12.30;99.90;;;;;;5069765;28;20123;-76
2022/10/14 03:51:06;;;;;;;9.20;4.30;;;12.20;99.90;;;;;;5071237;28;20056;-76
2022/10/14 03:53:32;;;;;;;7.60;4.80;;;12.20;99.90;;;;;;5071955;28;20077;-76
2022/10/14 03:55:58;;;;;;;9.88;4.57;;;12.30;99.90;;;;;;5067177;28;20041;-78
2022/10/14 03:58:23;;;;;;;7.72;5.05;;;12.20;99.90;;;;;;5071434;28;20036;-77
2022/10/14 04:00:52;;;;;;;7.75;4.43;;;12.20;99.90;;;;;;5066110;28;20044;-76
2022/10/14 04:03:18;;;;;;;7.45;4.65;;;12.20;99.90;;;;;;5066593;28;20048;-77
2022/10/14 04:05:44;;;;;;;6.28;4.70;;;12.10;99.90;;;;;;5070193;28;20037;-78
2022/10/14 04:08:09;;;;;;;7.20;4.47;;;12.10;99.90;;;;;;5066150;28;20118;-78
2022/10/14 04:10:38;;;;;;;11.00;4.53;;;12.10;99.90;;;;;;5068343;28;20020;-77
2022/10/14 04:13:04;;;;;;;10.07;6.57;;;12.10;99.90;;;;;;5070827;28;20029;-75
2022/10/14 04:15:30;;;;;;;25.73;12.80;;;12.10;99.90;;;;;;5071299;28;20485;-77
2022/10/14 04:17:55;;;;;;;24.90;13.95;;;12.20;99.90;;;;;;5069535;28;20103;-77
2022/10/14 04:20:21;;;;;;;29.48;17.13;;;12.20;99.90;;;;;;5073199;28;20021;-77
2022/10/14 04:22:47;;;;;;;7.25;5.05;;;12.20;99.90;;;;;;5067800;28;20062;-77
2022/10/14 04:25:13;;;;;;;9.60;5.25;;;12.20;99.90;;;;;;5063100;28;20028;-77
2022/10/14 04:27:39;;;;;;;5.82;4.28;;;12.20;99.90;;;;;;5069765;28;20029;-77
2022/10/14 04:30:06;;;;;;;9.82;4.90;;;12.10;99.90;;;;;;5073567;28;20017;-76
2022/10/14 04:32:31;;;;;;;6.35;4.65;;;12.10;99.90;;;;;;5073780;28;20469;-76
2022/10/14 04:34:57;;;;;;;6.22;4.80;;;12.10;99.90;;;;;;5063364;28;20552;-78
2022/10/14 04:37:23;;;;;;;7.07;4.30;;;12.10;99.90;;;;;;5069025;28;20114;-76
2022/10/14 04:39:49;;;;;;;7.32;4.18;;;12.10;99.90;;;;;;5071063;28;20489;-77
2022/10/14 04:42:14;;;;;;;6.07;4.35;;;12.10;99.90;;;;;;5072671;28;20048;-77
2022/10/14 04:44:40;;;;;;;6.45;3.85;;;12.10;99.90;;;;;;5071616;28;20037;-77
2022/10/14 04:47:06;;;;;;;7.18;4.88;;;12.10;99.90;;;;;;5071479;28;20044;-77
2022/10/14 04:49:32;;;;;;;7.15;4.35;;;12.10;99.90;;;;;;5069651;28;20052;-77
2022/10/14 04:51:58;;;;;;;7.03;4.28;;;12.10;99.90;;;;;;5071303;28;20032;-78
2022/10/14 04:54:24;;;;;;;7.88;4.53;;;12.20;99.90;;;;;;5070708;28;20433;-77
2022/10/14 04:56:50;;;;;;;7.18;4.35;;;12.10;99.90;;;;;;5072776;28;20081;-77
2022/10/14 04:59:15;;;;;;;7.35;4.70;;;12.10;99.90;;;;;;5068219;28;20085;-77
2022/10/14 05:01:41;;;;;;;5.55;4.07;;;12.10;99.90;;;;;;5065866;28;20040;-77
2022/10/14 05:04:10;;;;;;;8.25;4.85;;;12.10;99.90;;;;;;5064650;28;20037;-78
2022/10/14 05:06:38;;;;;;;6.90;5.10;;;12.10;99.90;;;;;;5068904;28;20044;-77
2022/10/14 05:09:04;;;;;;;;;;;12.10;99.90;;;;;;5072162;28;20063;-77
2022/10/14 05:11:31;;;;;;;8.80;4.10;;;12.10;99.90;;;;;;5063853;28;19998;-76
2022/10/14 05:14:04;;;;;;;8.57;4.60;;;12.10;99.90;;;;;;5066262;28;20036;-77
2022/10/14 05:16:30;;;;;;;7.45;5.13;;;12.10;99.90;;;;;;5069543;28;20457;-78
2022/10/14 05:18:56;;;;;;;6.68;4.75;;;12.10;99.90;;;;;;5074581;28;20036;-75
2022/10/14 05:21:22;;;;;;;7.93;4.75;;;12.00;99.90;;;;;;5066385;28;20027;-76
2022/10/14 05:23:48;;;;;;;7.95;4.63;;;12.00;99.90;;;;;;5063720;28;20498;-78
2022/10/14 05:26:14;;;;;;;8.77;4.80;;;12.00;99.90;;;;;;5064701;28;20661;-76
2022/10/14 05:28:40;;;;;;;8.05;5.05;;;11.90;99.90;;;;;;5067230;28;20028;-77
2022/10/14 05:31:05;;;;;;;8.15;4.65;;;11.90;99.90;;;;;;5072905;28;20094;-76
2022/10/14 05:33:31;;;;;;;9.23;5.25;;;11.80;99.90;;;;;;5083346;28;20024;-77
2022/10/14 05:36:00;;;;;;;7.55;5.03;;;11.70;99.90;;;;;;5067059;28;20036;-77
2022/10/14 05:38:26;;;;;;;7.97;5.10;;;11.70;99.90;;;;;;5069617;28;20495;-77
2022/10/14 05:40:56;;;;;;;6.63;4.60;;;11.70;99.90;;;;;;5064031;28;20053;-77
2022/10/14 05:43:23;;;;;;;7.97;5.05;;;11.70;99.90;;;;;;5063381;28;20040;-77
2022/10/14 05:45:49;;;;;;;7.00;4.90;;;11.80;99.90;;;;;;5063648;28;20048;-77
2022/10/14 05:48:16;;;;;;;6.68;4.85;;;11.80;99.90;;;;;;5061438;28;20062;-77
2022/10/14 05:50:42;;;;;;;10.00;4.53;;;11.80;99.90;;;;;;5060960;28;20036;-77
2022/10/14 05:53:08;;;;;;;7.47;4.50;;;11.80;99.90;;;;;;5064446;28;20048;-77
2022/10/14 05:55:34;;;;;;;7.38;4.60;;;11.80;99.90;;;;;;5062150;28;20063;-77
2022/10/14 05:58:03;;;;;;;10.35;4.57;;;11.80;99.90;;;;;;5064283;28;20033;-77
2022/10/14 06:00:31;;;;;;;10.00;5.43;;;11.90;99.90;;;;;;5064279;28;20031;-78
2022/10/14 06:02:57;;;;;;;8.23;4.55;;;11.90;99.90;;;;;;5069394;28;20098;-76
2022/10/14 06:05:23;;;;;;;7.75;5.07;;;12.00;99.90;;;;;;5066504;28;20037;-77
2022/10/14 06:07:49;;;;;;;6.22;4.55;;;12.00;99.90;;;;;;5064945;28;20040;-75
2022/10/14 06:10:15;;;;;;;6.85;4.40;;;12.00;99.90;;;;;;5064240;28;20020;-79
2022/10/14 06:12:41;;;;;;;5.78;4.38;;;12.00;99.90;;;;;;5074127;28;20037;-79
2022/10/14 06:15:06;;;;;;;10.75;5.10;;;12.00;99.90;;;;;;5073211;28;20050;-79
2022/10/14 06:17:32;;;;;;;6.05;4.28;;;12.00;99.90;;;;;;5071094;28;20029;-79
2022/10/14 06:19:58;;;;;;;6.55;3.90;;;12.00;99.90;;;;;;5070957;28;20485;-79
2022/10/14 06:22:24;;;;;;;10.32;4.70;;;12.10;99.90;;;;;;5073784;28;20100;-86
2022/10/14 06:24:49;;;;;;;8.23;4.97;;;12.10;99.90;;;;;;5071298;28;20082;-86
2022/10/14 06:27:15;;;;;;;8.02;4.63;;;12.10;99.90;;;;;;5078043;28;20131;-85
2022/10/14 06:29:40;;;;;;;36.42;11.10;;;12.20;99.90;;;;;;5076250;28;20032;-86
2022/10/14 06:32:08;;;;;;;23.10;7.47;;;12.20;99.90;;;;;;5073913;28;20038;-86
2022/10/14 06:34:34;;;;;;;18.73;6.85;;;12.20;99.90;;;;;;5071710;28;20033;-87
2022/10/14 06:37:00;;;;;;;11.32;5.72;;;12.20;99.90;;;;;;5076174;28;20119;-87
2022/10/14 06:39:26;;;;;;;10.50;4.60;;;12.30;99.90;;;;;;5076635;28;20103;-86
2022/10/14 06:41:52;;;;;;;8.68;5.35;;;12.30;99.90;;;;;;5073817;28;20322;-87
2022/10/14 06:44:18;;;;;;;11.85;5.82;;;12.40;99.90;;;;;;5072167;28;20033;-86
2022/10/14 06:46:44;;;;;;;30.17;10.40;;;12.40;99.90;;;;;;5074564;28;20114;-80
2022/10/14 06:49:10;;;;;;;31.42;10.30;;;12.40;99.90;;;;;;5074525;28;20041;-79
2022/10/14 06:51:37;;;;;;;10.90;6.40;;;12.50;99.90;;;;;;5073613;28;20029;-79
2022/10/14 06:54:03;;;;;;;19.30;7.30;;;12.60;99.90;;;;;;5072840;28;20036;-79
2022/10/14 06:56:29;;;;;;;16.05;7.47;;;12.60;99.90;;;;;;5071260;28;20505;-79
2022/10/14 06:58:55;;;;;;;9.55;5.28;;;12.60;99.90;;;;;;5072353;28;20048;-79
2022/10/14 07:01:21;;;;;;;21.27;10.68;;;12.70;99.90;;;;;;5075095;28;20547;-80
2022/10/14 07:03:47;;;;;;;10.90;6.60;;;12.70;99.90;;;;;;5071776;28;20032;-79
2022/10/14 07:06:13;;;;;;;8.98;5.53;;;12.70;99.90;;;;;;5076006;28;20028;-80
2022/10/14 07:08:38;;;;;;;6.90;5.28;;;12.70;99.90;;;;;;5074291;28;20090;-79
2022/10/14 07:11:05;;;;;;;6.35;4.85;;;12.70;99.90;;;;;;5076834;28;20081;-79
2022/10/14 07:13:33;;;;;;;6.40;4.68;;;12.70;99.90;;;;;;5073716;28;20048;-79
2022/10/14 07:15:58;;;;;;;6.72;4.80;;;12.80;99.90;;;;;;5071670;28;20029;-79
2022/10/14 07:18:24;;;;;;;7.22;4.63;;;12.80;99.90;;;;;;5073822;28;20059;-79
2022/10/14 07:20:49;;;;;;;5.80;4.35;;;12.90;99.90;;;;;;5073792;28;20511;-79
2022/10/14 07:23:15;;;;;;;6.97;4.72;;;12.90;99.90;;;;;;5071326;28;20029;-79
2022/10/14 07:25:41;;;;;;;5.80;4.15;;;12.90;99.90;;;;;;5072377;28;20404;-79
2022/10/14 07:28:06;;;;;;;5.22;3.97;;;13.00;99.90;;;;;;5076825;28;20041;-79
2022/10/14 07:30:32;;;;;;;7.05;4.00;;;13.00;99.90;;;;;;5070801;28;20459;-80
2022/10/14 07:32:58;;;;;;;7.32;4.32;;;13.00;99.90;;;;;;5068901;28;20040;-79
2022/10/14 07:35:25;;;;;;;7.70;4.03;;;13.10;99.90;;;;;;5075624;28;20040;-79
2022/10/14 07:37:51;;;;;;;7.07;4.28;;;13.10;99.90;;;;;;5075899;28;20058;-80
2022/10/14 07:40:17;;;;;;;5.93;3.97;;;13.10;99.90;;;;;;5073943;28;20047;-79
2022/10/14 07:42:43;;;;;;;5.25;3.85;;;13.00;99.90;;;;;;5072986;28;20033;-79
2022/10/14 07:45:14;;;;;;;7.63;4.05;;;13.10;99.90;;;;;;5071957;28;20020;-80
2022/10/14 07:47:42;;;;;;;6.95;3.80;;;13.20;99.90;;;;;;5077063;28;20037;-80
2022/10/14 07:50:08;;;;;;;7.93;3.95;;;13.20;99.90;;;;;;5075942;28;20144;-79
2022/10/14 07:52:34;;;;;;;5.53;3.75;;;13.40;99.90;;;;;;5074871;28;20029;-80
2022/10/14 07:54:59;;;;;;;4.22;2.50;;;13.50;99.90;;;;;;5081368;28;20025;-79
2022/10/14 07:57:26;;;;;;;4.47;2.22;;;13.50;99.90;;;;;;5075818;28;20520;-79
2022/10/14 07:59:52;;;;;;;4.97;2.55;;;13.60;99.90;;;;;;5075354;28;20066;-80
2022/10/14 08:02:18;;;;;;;4.10;2.35;;;13.80;99.90;;;;;;5077374;28;20052;-87
2022/10/14 08:04:44;;;;;;;3.13;2.35;;;13.80;99.90;;;;;;5078201;28;20052;-87
2022/10/14 08:07:13;;;;;;;5.68;3.35;;;13.90;99.90;;;;;;5077284;28;20029;-87
2022/10/14 08:09:39;;;;;;;;;;;13.90;99.90;;;;;;5076881;28;20092;-87
2022/10/14 08:12:04;;;;;;;4.65;2.50;;;14.00;99.90;;;;;;5076572;28;20386;-87
2022/10/14 08:14:30;;;;;;;3.38;2.90;;;14.00;99.90;;;;;;5078131;28;20037;-87
2022/10/14 08:16:55;;;;;;;5.40;2.60;;;14.00;99.90;;;;;;5074922;28;20154;-85
2022/10/14 08:19:21;;;;;;;4.30;2.25;;;14.20;99.90;;;;;;5075456;28;20044;-88
2022/10/14 08:21:47;;;;;;;4.32;2.63;;;14.20;99.90;;;;;;5074206;28;20033;-87
2022/10/14 08:24:12;;;;;;;1.98;1.80;;;14.40;99.90;;;;;;5074675;28;20789;-86
2022/10/14 08:26:47;;;;;;;2.83;1.65;;;14.50;99.90;;;;;;5072887;28;20069;-80
2022/10/14 08:29:12;;;;;;;2.95;1.80;;;14.50;99.90;;;;;;5074959;28;20033;-80
2022/10/14 08:31:38;;;;;;;3.45;1.77;;;14.60;99.90;;;;;;5074474;28;20063;-80
2022/10/14 08:34:03;;;;;;;1.73;1.50;;;14.60;99.90;;;;;;5074774;28;20092;-79
2022/10/14 08:36:29;;;;;;;2.40;1.95;;;14.60;99.90;;;;;;5073508;28;20044;-79
2022/10/14 08:38:55;;;;;;;6.15;1.88;;;14.60;99.90;;;;;;5072727;28;20041;-79
2022/10/14 08:41:32;;;;;;;2.42;1.90;;;14.80;99.90;;;;;;5072771;28;20047;-79
2022/10/14 08:44:19;;;;;;;1.73;1.35;;;14.80;99.90;;;;;;5072788;28;20044;-79
2022/10/14 08:47:06;;;;;;;1.60;1.38;;;14.80;99.90;;;;;;5074504;28;20067;-79
2022/10/14 08:49:48;;;;;;;2.50;1.73;;;14.80;99.90;;;;;;5072368;28;20053;-79
2022/10/14 08:52:18;;;;;;;2.03;1.73;;;14.90;99.90;;;;;;5074216;28;20107;-87
2022/10/14 08:54:48;;;;;;;2.22;1.63;;;14.90;99.90;;;;;;5074035;28;20033;-87
2022/10/14 08:57:19;;;;;;;4.85;1.70;;;14.90;99.90;;;;;;5072273;28;20040;-88
2022/10/14 08:59:45;;;;;;;3.25;1.67;;;15.00;99.90;;;;;;5075503;28;20027;-86
2022/10/14 09:02:37;;;;;;;3.22;1.70;;;15.20;99.90;;;;;;5073526;28;20044;-87
2022/10/14 09:05:04;;;;;;;2.00;1.27;;;15.10;99.90;;;;;;5071797;28;20125;-87
2022/10/14 09:07:31;;;;;;;1.50;1.40;;;15.20;99.90;;;;;;5074111;28;20037;-79
2022/10/14 09:10:13;;;;;;;1.75;1.52;;;15.30;99.90;;;;;;5071997;28;20110;-79
2022/10/14 09:12:41;;;;;;;1.35;1.25;;;15.50;99.90;;;;;;5073054;28;20099;-79
2022/10/14 09:15:15;;;;;;;3.55;2.08;;;15.70;99.90;;;;;;5073217;28;20037;-78
2022/10/14 09:17:54;;;;;;;1.65;1.55;;;15.90;99.90;;;;;;5073868;28;20028;-79
2022/10/14 09:20:22;;;;;;;3.20;1.40;;;15.80;99.90;;;;;;5068986;28;20119;-78
2022/10/14 09:22:58;;;;;;;2.37;1.60;;;15.90;99.90;;;;;;5070834;28;20055;-78
2022/10/14 09:25:24;;;;;;;1.35;1.25;;;16.00;99.90;;;;;;5073298;28;20267;-80
2022/10/14 09:27:49;;;;;;;1.50;1.40;;;15.90;99.90;;;;;;5074568;28;20033;-80
2022/10/14 09:30:16;;;;;;;1.52;1.42;;;16.00;99.90;;;;;;5073825;28;20464;-79
2022/10/14 09:32:43;;;;;;;1.98;1.38;;;16.20;99.90;;;;;;5073685;28;20043;-80
2022/10/14 09:35:34;;;;;;;5.30;2.40;;;16.30;99.90;;;;;;5071580;28;20024;-80
2022/10/14 09:37:59;;;;;;;3.83;1.55;;;16.60;99.90;;;;;;5067974;28;20120;-80
2022/10/14 09:40:33;;;;;;;1.52;1.15;;;16.80;99.90;;;;;;5073755;28;20064;-77
2022/10/14 09:43:23;;;;;;;2.92;1.40;;;16.80;99.90;;;;;;5070433;28;20034;-78
2022/10/14 09:46:03;;;;;;;1.63;1.52;;;17.10;99.90;;;;;;5071853;28;20040;-79
2022/10/14 09:48:50;;;;;;;1.67;1.02;;;17.10;99.90;;;;;;5077012;28;20041;-79
2022/10/14 09:51:30;;;;;;;1.27;1.17;;;16.70;99.90;;;;;;5075612;28;20046;-80
2022/10/14 09:54:01;;;;;;;7.75;1.48;;;16.60;99.90;;;;;;5073584;28;20028;-81
2022/10/14 09:56:36;;;;;;;2.70;1.60;;;16.60;99.90;;;;;;5076008;28;20056;-81
2022/10/14 09:59:03;;;;;;;3.35;1.40;;;16.70;99.90;;;;;;5075334;28;20033;-82
2022/10/14 10:01:39;;;;;;;1.60;1.27;;;16.80;99.90;;;;;;5069729;28;20096;-78
2022/10/14 10:04:33;;;;;;;1.77;1.30;;;17.00;99.90;;;;;;5075708;28;20477;-78
2022/10/14 10:07:01;;;;;;;1.48;1.00;;;17.00;99.90;;;;;;5059437;28;20052;-77
2022/10/14 10:09:27;;;;;;;2.15;1.30;;;16.90;99.90;;;;;;5077377;28;20106;-77
2022/10/14 10:11:54;;;;;;;1.30;1.20;;;16.80;99.90;;;;;;5074386;28;20032;-78
2022/10/14 10:14:25;;;;;;;2.70;1.30;;;16.70;99.90;;;;;;5072812;28;20032;-78
2022/10/14 10:17:18;;;;;;;1.15;1.10;;;16.90;99.90;;;;;;5071787;28;20941;-81
2022/10/14 10:19:47;;;;;;;2.40;1.10;;;16.90;99.90;;;;;;5077236;28;20131;-81
2022/10/14 10:22:19;;;;;;;3.08;1.52;;;16.90;99.90;;;;;;5070979;28;20059;-79
2022/10/14 10:25:07;;;;;;;2.88;1.20;;;17.00;99.90;;;;;;5073790;28;20040;-80
2022/10/14 10:27:35;;;;;;;1.92;1.02;;;17.10;99.90;;;;;;5062769;28;20036;-79
2022/10/14 10:30:22;;;;;;;2.08;1.20;;;16.90;99.90;;;;;;5075471;28;20068;-78
2022/10/14 10:33:00;;;;;;;1.42;1.33;;;17.10;99.90;;;;;;5073712;28;20052;-78
2022/10/14 10:36:14;;;;;;;1.92;1.23;;;17.10;99.90;;;;;;5077434;28;20032;-78
2022/10/14 10:38:53;;;;;;;1.65;1.42;;;16.90;99.90;;;;;;5057039;28;20048;-78
2022/10/14 10:41:27;;;;;;;1.35;1.25;;;16.90;99.90;;;;;;5073254;28;20031;-78
2022/10/14 10:44:17;;;;;;;2.20;1.42;;;16.90;99.90;;;;;;5069932;28;20028;-79
2022/10/14 10:47:11;;;;;;;1.85;1.15;;;16.90;99.90;;;;;;5076224;28;20393;-91
2022/10/14 10:49:47;;;;;;;1.90;1.35;;;17.10;99.90;;;;;;5071805;28;20030;-91
2022/10/14 10:52:44;;;;;;;2.80;1.58;;;16.90;99.90;;;;;;5075291;28;20056;-83
2022/10/14 10:55:17;;;;;;;2.08;1.73;;;16.90;99.90;;;;;;5075710;28;20035;-84
2022/10/14 10:58:07;;;;;;;1.58;1.48;;;17.00;99.90;;;;;;5070325;28;20093;-84
2022/10/14 11:00:44;;;;;;;2.13;1.48;;;16.90;99.90;;;;;;5072683;28;20061;-82
2022/10/14 11:03:34;;;;;;;2.08;1.40;;;17.00;99.90;;;;;;5073233;28;20078;-83
2022/10/14 11:12:01;;;;;;;1.80;1.50;;;17.00;99.90;;;;;;5075527;28;20082;-83
2022/10/14 11:12:25;;;;;;;2.10;1.50;;;17.10;99.90;;;;;;5044199;28;20044;-79
2022/10/14 11:15:02;;;;;;;2.72;1.60;;;17.20;99.90;;;;;;5074433;28;20041;-80
2022/10/14 11:18:00;;;;;;;2.47;1.60;;;17.20;99.90;;;;;;5073449;28;20498;-82
2022/10/14 11:20:45;;;;;;;3.13;1.75;;;17.10;99.90;;;;;;5062597;28;20040;-82
2022/10/14 11:23:33;;;;;;;2.38;1.48;;;17.00;99.90;;;;;;5077609;28;20492;-83
2022/10/14 11:26:06;;;;;;;4.32;1.35;;;17.00;99.90;;;;;;5079049;28;20025;-79
2022/10/14 11:28:55;;;;;;;3.80;1.40;;;17.00;99.90;;;;;;5078676;28;20031;-79
2022/10/14 11:31:50;;;;;;;3.72;1.90;;;16.90;99.90;;;;;;5078875;28;20047;-77
2022/10/14 11:34:34;;;;;;;3.85;3.28;;;17.00;99.90;;;;;;5078995;28;20302;-78
2022/10/14 12:24:57;;;;;;;3.65;1.60;;;16.60;99.90;;;;;;5090628;27;20431;-31
2022/10/14 12:27:25;;;;;;;2.95;1.48;;;16.60;99.90;;;;;;5073875;28;20025;-31
2022/10/14 12:29:51;;;;;;;;;;;16.60;99.90;;;;;;5076682;28;20029;-35
2022/10/14 12:32:23;;;;;;;3.30;1.23;;;16.60;99.90;;;;;;5053393;28;19921;-36
2022/10/14 12:34:54;;;;;;;2.55;1.00;;;16.60;99.90;;;;;;5053365;28;20029;-34
2022/10/14 12:37:33;;;;;;;2.05;1.30;;;16.60;99.90;;;;;;5055350;28;20040;-38
2022/10/14 12:40:02;;;;;;;1.27;1.00;;;16.60;99.90;;;;;;5055949;28;20029;-36
2022/10/14 12:42:29;;;;;;;3.38;1.23;;;16.60;99.90;;;;;;5055012;28;20127;-35
2022/10/14 12:45:00;;;;;;;1.42;1.27;;;16.50;99.90;;;;;;5054203;28;20025;-37
2022/10/14 12:47:30;;;;;;;2.25;1.23;;;16.50;99.90;;;;;;5053558;28;20024;-37
2022/10/14 12:50:03;;;;;;;2.88;1.77;;;16.40;99.90;;;;;;5051754;28;20086;-33
2022/10/14 12:52:34;;;;;;;1.30;1.20;;;16.40;99.90;;;;;;5059209;28;20115;-38
2022/10/14 12:55:07;;;;;;;2.42;1.52;;;16.30;99.90;;;;;;5053498;28;20405;-38
2022/10/14 12:57:35;;;;;;;2.30;1.40;;;16.20;99.90;;;;;;5060121;28;20492;-32
2022/10/14 13:00:06;;;;;;;5.63;1.98;;;16.30;99.90;;;;;;5053351;28;20041;-38
2022/10/14 13:02:34;;;;;;;1.38;1.20;;;16.30;99.90;;;;;;5056041;28;20051;-38
2022/10/14 13:05:30;;;;;;;3.38;1.13;;;16.10;99.90;;;;;;5056128;28;20120;-37
2022/10/14 13:08:14;;;;;;;2.78;1.02;;;16.00;99.90;;;;;;5060991;28;20033;-36
2022/10/14 13:11:08;;;;;;;1.52;1.27;;;16.00;99.90;;;;;;5062782;28;20025;-37
2022/10/14 13:13:52;;;;;;;1.92;1.30;;;15.90;99.90;;;;;;5059335;28;20576;-38
2022/10/14 13:16:23;;;;;;;1.20;0.88;;;16.00;99.90;;;;;;5075086;28;20092;-37
2022/10/14 13:18:56;;;;;;;1.20;1.10;;;15.90;99.90;;;;;;5060053;28;20532;-38
2022/10/14 13:21:35;;;;;;;2.72;1.20;;;15.90;99.90;;;;;;5062879;28;20107;-38
2022/10/14 13:24:06;;;;;;;1.60;1.05;;;16.00;99.90;;;;;;5051014;28;20076;-38
2022/10/14 13:26:41;;;;;;;3.40;1.50;;;16.00;99.90;;;;;;5041157;28;20127;-37
2022/10/14 13:29:29;;;;;;;1.13;1.10;;;15.90;99.90;;;;;;5042462;28;20018;-33
2022/10/14 13:32:24;;;;;;;2.63;1.20;;;15.90;99.90;;;;;;5039372;28;20547;-38
2022/10/14 13:35:25;;;;;;;5.15;1.60;;;15.90;99.90;;;;;;5043183;28;20925;-37
2022/10/14 13:38:01;;;;;;;3.03;1.35;;;15.90;99.90;;;;;;5045831;28;20020;-38
2022/10/14 13:40:38;;;;;;;1.90;1.10;;;15.90;99.90;;;;;;5043536;28;20477;-35
2022/10/14 13:43:26;;;;;;;2.10;1.35;;;15.80;99.90;;;;;;5041873;28;20305;-38
2022/10/14 13:45:56;;;;;;;2.70;1.35;;;15.80;99.90;;;;;;5041775;28;20017;-38
2022/10/14 13:48:32;;;;;;;1.20;1.10;;;15.70;99.90;;;;;;5041798;28;20112;-37
2022/10/14 13:51:07;;;;;;;1.95;1.40;;;15.60;99.90;;;;;;5043573;28;20071;-33
2022/10/14 13:53:32;;;;;;;4.45;1.88;;;15.50;99.90;;;;;;5041624;28;20022;-38
2022/10/14 13:55:58;;;;;;;3.97;1.50;;;15.30;99.90;;;;;;5045226;28;20695;-38
2022/10/14 13:58:24;;;;;;;3.60;1.85;;;15.40;99.90;;;;;;5042638;28;20037;-38